Latest Weather Observations for Minlaton Airport

IDS60801

Issued at 8:35 am CST Wednesday 30 July 2014 (issued every 30 minutes, with the page automatically refreshed every 10 minutes)

About weather observations | Map of weather stations | Latest weather observations for SA | Other Formats
Station Details ID: 022031 Name: MINLATON AERO Lat: -34.75 Lon: 137.53 Height: 32.0 m
Data from the previous 72 hours. | See also: Recent months at Minlaton Airport
Date/Time
CST
Temp
°C
App
Temp
°C
Dew
Point
Rel
Hum
%
Delta-T
°C
Wind Press
QNH
hPa
Press
MSL
hPa
Rain
since 9 am
mm
Dir
 
Spd
km/h
Gust
km/h
Spd
kts
Gust
kts
30/08:30am 13.5 8.6 12.6 94 0.5 NW 30 37 16 20 1018.3 1018.3 2.2
30/08:00am 12.8 8.5 12.0 95 0.4 NW 26 32 14 17 1017.9 - 2.2
30/07:30am 12.6 8.6 11.8 95 0.4 NW 24 30 13 16 1018.0 1018.0 2.2
30/07:00am 12.8 9.2 12.0 95 0.4 NNW 22 26 12 14 1018.0 - 2.2
30/06:30am 12.4 8.3 11.6 95 0.4 NNW 24 30 13 16 1017.7 1017.7 2.2
30/06:00am 12.9 8.6 12.1 95 0.4 NW 26 33 14 18 1017.5 1017.5 2.2
30/05:30am 12.8 9.3 12.2 96 0.3 NNW 22 28 12 15 1017.3 1017.3 2.2
30/05:00am 12.2 8.5 11.6 96 0.3 NNW 22 28 12 15 1017.2 - 2.2
30/04:30am 12.4 8.0 11.6 95 0.4 NNW 26 33 14 18 1017.0 1017.0 2.2
30/04:00am 12.4 8.0 11.6 95 0.4 NNW 26 30 14 16 1017.1 - 2.2
30/03:30am 12.6 9.0 11.7 94 0.5 NW 22 28 12 15 1017.5 1017.5 2.2
30/03:00am 13.1 9.3 12.3 95 0.4 NNW 24 30 13 16 1017.8 1017.8 2.2
30/02:30am 12.8 9.6 12.0 95 0.4 NNW 20 26 11 14 1017.9 1017.9 2.2
30/02:00am 12.3 9.0 11.5 95 0.4 NNW 20 26 11 14 1018.1 - 2.2
30/01:30am 12.5 9.2 11.7 95 0.4 NNW 20 28 11 15 1018.3 1018.3 2.2
30/01:00am 13.2 9.4 12.3 94 0.5 NW 24 32 13 17 1018.3 - 2.2
30/12:30am 13.4 9.2 12.3 93 0.6 NW 26 33 14 18 1018.3 1018.3 2.2
30/12:00am 13.3 9.5 12.4 94 0.5 NW 24 32 13 17 1018.5 1018.5 2.2
 
Date/Time
CST
Temp
°C
App
Temp
°C
Dew
Point
Rel
Hum
%
Delta-T
°C
Wind Press
QNH
hPa
Press
MSL
hPa
Rain
since 9 am
mm
Dir
 
Spd
km/h
Gust
km/h
Spd
kts
Gust
kts
29/11:30pm 13.1 9.2 12.0 93 0.6 NW 24 30 13 16 1018.7 1018.8 2.2
29/11:00pm 13.3 9.4 12.2 93 0.6 NW 24 30 13 16 1018.8 - 2.2
29/10:30pm 13.4 9.6 12.5 94 0.5 NW 24 32 13 17 1018.7 1018.8 2.2
29/10:00pm 13.5 9.4 12.6 94 0.5 NW 26 33 14 18 1018.7 - 2.2
29/09:30pm 13.6 9.1 12.7 94 0.5 NW 28 39 15 21 1018.5 1018.5 2.2
29/09:00pm 13.6 8.7 12.7 94 0.5 WNW 30 37 16 20 1018.5 1018.5 2.2
29/08:30pm 13.8 9.6 12.5 92 0.7 WNW 26 33 14 18 1018.4 1018.4 1.6
29/08:00pm 13.8 9.3 12.5 92 0.7 WNW 28 35 15 19 1018.1 - 1.6
29/07:30pm 13.2 8.6 12.3 94 0.5 WNW 28 33 15 18 1017.7 1017.7 1.6
29/07:00pm 13.1 7.6 12.3 95 0.4 W 33 46 18 25 1017.7 - 1.4
29/06:30pm 13.4 6.0 12.3 93 0.6 W 43 56 23 30 1017.5 1017.5 0.6
29/06:00pm 14.2 9.6 12.2 88 1.1 WNW 28 39 15 21 1017.2 1017.2 0.0
29/05:30pm 14.6 9.6 12.3 86 1.3 WNW 30 41 16 22 1016.9 1016.9 0.0
29/05:00pm 14.5 9.9 12.2 86 1.2 NW 28 37 15 20 1016.3 - 0.0
29/04:30pm 14.5 10.7 12.5 88 1.1 NW 24 32 13 17 1016.1 1016.1 0.0
29/04:00pm 14.5 11.2 12.7 89 1.0 NW 22 30 12 16 1016.2 - 0.0
29/03:30pm 14.6 10.2 12.8 89 1.0 NW 28 39 15 21 1016.2 1016.2 0.0
29/03:00pm 14.7 10.7 12.9 89 1.0 NW 26 35 14 19 1016.0 1016.0 0.0
29/02:30pm 15.0 9.8 12.9 87 1.2 NW 32 43 17 23 1015.9 1015.9 0.0
29/02:00pm 15.0 9.8 12.9 87 1.2 NW 32 43 17 23 1015.7 - 0.0
29/01:30pm 14.9 9.4 12.6 86 1.3 NW 33 44 18 24 1016.0 1016.0 0.0
29/01:00pm 15.6 9.9 12.9 84 1.5 NW 35 43 19 23 1015.7 - 0.0
29/12:30pm 15.1 9.6 12.6 85 1.4 NW 33 43 18 23 1016.1 1016.1 0.0
29/12:00pm 15.6 10.4 12.9 84 1.5 NW 32 43 17 23 1016.4 1016.4 0.0
29/11:30am 14.6 9.1 12.6 88 1.1 NW 33 44 18 24 1016.7 1016.7 0.0
29/11:00am 14.7 8.0 12.2 85 1.4 NW 39 50 21 27 1016.6 - 0.0
29/10:30am 14.9 9.1 12.6 86 1.3 WNW 35 46 19 25 1016.6 1016.6 0.0
29/10:00am 14.5 7.4 12.2 86 1.2 NW 41 54 22 29 1016.4 - 0.0
29/09:30am 13.7 6.8 11.6 87 1.1 NW 39 48 21 26 1016.2 1016.2 0.0
29/09:00am 13.1 6.2 11.7 91 0.7 NW 39 52 21 28 1016.5 1016.5 0.0
29/08:30am 13.1 6.5 11.3 89 1.0 NW 37 46 20 25 1016.2 1016.2 0.0
29/08:00am 12.9 6.7 11.3 90 0.8 NW 35 43 19 23 1015.8 - 0.0
29/07:30am 12.6 6.7 11.0 90 0.8 NW 33 46 18 25 1015.8 1015.8 0.0
29/07:00am 12.4 6.0 10.8 90 0.8 NNW 35 44 19 24 1015.8 - 0.0
29/06:30am 12.4 6.7 11.0 91 0.7 NNW 32 41 17 22 1015.4 1015.4 0.0
29/06:00am 11.9 6.8 10.6 92 0.7 NNW 28 35 15 19 1015.1 1015.1 0.0
29/05:30am 12.1 6.6 10.5 90 0.8 NNW 30 39 16 21 1015.0 1015.0 0.0
29/05:00am 12.6 7.2 10.8 89 0.9 NW 30 43 16 23 1015.3 - 0.0
29/04:30am 12.5 6.7 10.9 90 0.8 NW 32 41 17 22 1015.1 1015.1 0.0
29/04:00am 12.5 7.0 10.7 89 0.9 NW 30 39 16 21 1014.9 - 0.0
29/03:30am 12.4 6.9 10.5 88 1.0 NW 30 37 16 20 1014.9 1014.9 0.0
29/03:00am 12.3 7.1 10.2 87 1.1 NW 28 35 15 19 1015.3 1015.3 0.0
29/02:30am 12.1 6.8 9.8 86 1.2 NNW 28 35 15 19 1015.0 1015.0 0.0
29/02:00am 12.2 6.9 9.8 85 1.2 NW 28 35 15 19 1015.2 - 0.0
29/01:30am 12.4 6.6 9.6 83 1.4 NW 30 37 16 20 1015.3 1015.3 0.0
29/01:00am 12.5 6.3 9.5 82 1.5 NW 32 41 17 22 1015.7 - 0.0
29/12:30am 12.2 6.8 9.4 83 1.4 NW 28 35 15 19 1015.8 1015.8 0.0
29/12:00am 12.3 6.8 9.1 81 1.6 NW 28 35 15 19 1016.1 1016.1 0.0
 
Date/Time
CST
Temp
°C
App
Temp
°C
Dew
Point
Rel
Hum
%
Delta-T
°C
Wind Press
QNH
hPa
Press
MSL
hPa
Rain
since 9 am
mm
Dir
 
Spd
km/h
Gust
km/h
Spd
kts
Gust
kts
28/11:30pm 12.3 6.5 9.3 82 1.5 NW 30 37 16 20 1016.2 1016.2 0.0
28/11:00pm 11.9 7.3 9.6 86 1.2 NNW 24 32 13 17 1016.2 - 0.0
28/10:30pm 12.0 7.4 9.6 85 1.2 NNW 24 32 13 17 1016.5 1016.5 0.0
28/10:00pm 12.2 7.2 9.4 83 1.4 NW 26 32 14 17 1016.7 - 0.0
28/09:30pm 12.0 7.5 9.9 87 1.1 NNW 24 28 13 15 1016.7 1016.7 0.0
28/09:00pm 11.8 7.3 9.9 88 1.0 NNW 24 28 13 15 1016.6 1016.6 0.0
28/08:30pm 11.2 7.3 9.5 89 0.9 NNW 20 24 11 13 1016.6 1016.6 0.0
28/08:00pm 11.6 7.4 9.7 88 1.0 NNW 22 28 12 15 1016.4 - 0.0
28/07:30pm 11.7 7.5 9.6 87 1.1 NNW 22 26 12 14 1016.3 1016.3 0.0
28/07:00pm 11.6 7.8 9.7 88 1.0 NNW 20 24 11 13 1016.0 - 0.0
28/06:30pm 11.6 7.9 10.0 90 0.8 NNW 20 24 11 13 1015.7 1015.7 0.0
28/06:00pm 11.9 8.2 10.3 90 0.8 NNW 20 24 11 13 1015.8 1015.8 0.0
28/05:30pm 12.3 8.7 10.4 88 1.0 NNW 20 24 11 13 1015.7 1015.7 0.0
28/05:00pm 13.5 9.7 11.2 86 1.2 NNW 22 28 12 15 1015.8 - 0.0
28/04:30pm 14.2 9.9 11.9 86 1.2 NNW 26 33 14 18 1015.7 1015.7 0.0
28/04:00pm 14.7 10.0 12.0 84 1.5 NNW 28 35 15 19 1015.5 - 0.0
28/03:30pm 14.9 9.4 12.0 83 1.6 NNW 32 39 17 21 1015.5 1015.5 0.0
28/03:00pm 14.9 10.0 12.6 86 1.3 NNW 30 39 16 21 1015.6 1015.6 0.0
28/02:30pm 14.7 9.4 12.4 86 1.3 NNW 32 41 17 22 1015.8 1015.8 0.0
28/02:00pm 15.1 10.3 13.0 87 1.2 NNW 30 35 16 19 1015.9 - 0.0
28/01:30pm 15.1 10.6 12.6 85 1.4 NW 28 39 15 21 1016.5 1016.5 0.0
28/01:00pm 14.9 10.6 13.1 89 1.0 NW 28 33 15 18 1017.0 - 0.0
28/12:30pm 14.9 11.4 13.3 90 0.9 NW 24 30 13 16 1017.4 1017.4 0.0
28/12:00pm 14.5 10.5 12.9 90 0.9 NW 26 33 14 18 1017.8 1017.8 0.0
28/11:30am 13.7 10.3 12.6 93 0.6 NW 22 30 12 16 1017.9 1017.9 0.0
28/11:00am 14.3 11.1 13.2 93 0.6 NNW 22 30 12 16 1018.0 - 0.0
28/10:30am 13.6 10.6 12.7 94 0.5 NW 20 26 11 14 1018.2 1018.2 0.0
28/10:00am 13.1 10.2 12.3 95 0.4 NW 19 24 10 13 1018.3 - 0.0
28/09:30am 13.2 10.7 12.4 95 0.4 NW 17 22 9 12 1018.5 1018.5 0.0
28/09:00am 12.4 9.7 11.8 96 0.3 N 17 20 9 11 1018.3 1018.3 0.2
28/08:30am 10.9 8.6 10.3 96 0.3 N 13 15 7 8 1018.2 1018.2 0.2
28/08:00am 9.9 7.2 9.1 95 0.4 N 13 15 7 8 1018.3 - 0.2
28/07:30am 9.7 6.6 8.9 95 0.4 N 15 17 8 9 1017.8 1017.8 0.2
28/07:00am 9.5 6.0 8.7 95 0.4 N 17 19 9 10 1017.7 - 0.2
28/06:30am 9.4 5.9 8.6 95 0.4 N 17 20 9 11 1017.4 1017.4 0.2
28/06:00am 8.8 5.9 8.0 95 0.4 N 13 17 7 9 1017.2 1017.2 0.2
28/05:30am 8.7 5.4 7.9 95 0.4 N 15 17 8 9 1017.2 1017.2 0.2
28/05:00am 8.4 5.0 7.6 95 0.4 N 15 17 8 9 1017.2 - 0.2
28/04:30am 8.0 4.9 7.1 94 0.4 N 13 17 7 9 1017.3 1017.3 0.2
28/04:00am 7.9 4.7 7.0 94 0.4 N 13 13 7 7 1017.4 - 0.2
28/03:30am 8.3 4.8 7.4 94 0.4 NNW 15 17 8 9 1017.5 1017.5 0.2
28/03:00am 8.5 4.7 7.6 94 0.4 N 17 19 9 10 1017.3 1017.3 0.2
28/02:30am 7.3 3.2 6.4 94 0.4 N 17 17 9 9 1017.4 1017.4 0.2
28/02:00am 7.0 2.8 5.8 92 0.5 N 17 17 9 9 1017.6 - 0.2
28/01:30am 7.2 3.0 5.8 91 0.6 N 17 19 9 10 1017.5 1017.5 0.2
28/01:00am 7.8 3.4 6.4 91 0.6 N 19 22 10 12 1017.5 - 0.2
28/12:30am 7.8 3.4 6.4 91 0.6 N 19 20 10 11 1017.7 1017.7 0.2
28/12:00am 7.6 3.5 6.1 90 0.7 N 17 17 9 9 1017.9 1017.9 0.2
 
Date/Time
CST
Temp
°C
App
Temp
°C
Dew
Point
Rel
Hum
%
Delta-T
°C
Wind Press
QNH
hPa
Press
MSL
hPa
Rain
since 9 am
mm
Dir
 
Spd
km/h
Gust
km/h
Spd
kts
Gust
kts
27/11:30pm 7.7 3.9 6.0 89 0.8 N 15 17 8 9 1018.2 1018.2 0.2
27/11:00pm 8.1 4.0 6.2 88 0.9 N 17 19 9 10 1018.3 - 0.2
27/10:30pm 9.5 5.3 7.3 86 1.0 N 19 22 10 12 1018.4 1018.4 0.2
27/10:00pm 9.4 5.2 7.3 87 1.0 N 19 20 10 11 1018.5 - 0.2
27/09:30pm 9.6 5.4 7.5 87 1.0 N 19 20 10 11 1018.6 1018.6 0.2
27/09:00pm 9.7 5.9 7.5 86 1.0 N 17 17 9 9 1018.7 1018.8 0.2
27/08:30pm 10.8 6.7 8.0 83 1.4 N 19 22 10 12 1018.6 1018.6 0.2
27/08:00pm 11.1 6.5 8.0 81 1.5 N 22 26 12 14 1018.5 - 0.2
27/07:30pm 11.1 6.5 8.1 82 1.5 N 22 26 12 14 1018.5 1018.5 0.2
27/07:00pm 10.7 6.5 8.3 85 1.2 N 20 24 11 13 1018.6 - 0.2
27/06:30pm 11.2 7.1 8.6 84 1.3 N 20 24 11 13 1018.5 1018.5 0.2
27/06:00pm 11.6 8.1 8.6 82 1.5 N 17 20 9 11 1018.6 1018.6 0.2
27/05:30pm 12.8 9.0 9.1 78 1.9 N 19 22 10 12 1018.4 1018.4 0.2
27/05:00pm 13.8 10.1 9.3 74 2.3 N 19 24 10 13 1018.3 - 0.2
27/04:30pm 14.6 9.8 9.0 69 2.8 N 24 30 13 16 1018.3 1018.3 0.2
27/04:00pm 15.1 9.6 9.0 67 3.1 N 28 39 15 21 1018.2 - 0.2
27/03:30pm 15.8 11.2 9.7 67 3.2 N 24 28 13 15 1018.5 1018.5 0.2
27/03:00pm 16.0 12.3 10.1 68 3.1 N 20 32 11 17 1018.5 1018.5 0.2
27/02:30pm 15.2 10.4 8.9 66 3.2 N 24 32 13 17 1018.8 1018.9 0.0
27/02:00pm 14.7 8.3 8.6 67 3.1 N 32 39 17 21 1019.0 - 0.0
27/01:30pm 14.4 8.1 8.8 69 2.8 N 32 41 17 22 1019.3 1019.4 0.0
27/01:00pm 14.5 8.0 8.2 66 3.2 N 32 46 17 25 1019.8 - 0.0
27/12:30pm 14.0 6.8 7.8 66 3.1 N 35 48 19 26 1020.1 1020.2 0.0
27/12:00pm 13.7 6.6 7.9 68 2.9 N 35 46 19 25 1020.6 1020.7 0.0
27/11:30am 13.5 6.4 7.9 69 2.8 N 35 46 19 25 1021.3 1021.4 0.0
27/11:00am 13.4 7.2 9.3 76 2.1 N 32 41 17 22 1021.8 - 0.0
27/10:30am 12.7 7.2 9.0 78 1.9 N 28 37 15 20 1022.4 1022.5 0.0
27/10:00am 12.1 7.4 9.1 82 1.5 N 24 33 13 18 1022.5 - 0.0
27/09:30am 11.4 5.9 9.0 85 1.2 N 28 33 15 18 1022.5 1022.6 0.0
27/09:00am 10.4 4.7 8.5 88 0.9 N 28 33 15 18 1022.5 1022.6 0.0

Other Formats:

Comma delimited format used in spreadsheet applications
http://www.bom.gov.au/fwo/IDS60801/IDS60801.95659.axf

JavaScript Object Notation format (JSON) in row-major order
http://www.bom.gov.au/fwo/IDS60801/IDS60801.95659.json